Rocky Grove, Pennsylvania
Current Conditions -  °F | °C
As of 4:15 AM on Friday 24 Oct 2014 (Local Time) from KFKL Reporting Station
Overcast Overcast  
Wind Chill:   Ceiling: 200
Heat Index:   Visibility: 0.25mi
Dew Point:   Wind: 5mph
Humidity: 87%   Direction: 300°WNW
Pressure: 30.07"   Gusts: NA
Location:  41.4663°N, 79.8305°W
Report Text: KFKL 240815Z 30004KT 1/4SM OVC002 06/04 A3007 RMK AO1
Loading
Personal Weather Stations






























Interactive Weather Map
Tropical Storm Tracking
New forecast layout! Learn more

10-Day Weather Forecast

Advertisements
Track Severe Weather on mobile